createdAt,value
2017-02-01T00:00:10.551Z,23.15
2017-02-01T00:00:51.138Z,23.16
2017-02-01T00:01:31.764Z,23.19
2017-02-01T00:02:12.394Z,23.05
2017-02-01T00:02:52.995Z,23.15
2017-02-01T00:03:33.579Z,23.15
2017-02-01T00:04:14.214Z,23.15
2017-02-01T00:04:54.842Z,23.15
2017-02-01T00:05:35.432Z,23.19
2017-02-01T00:06:16.027Z,23.16
2017-02-01T00:06:56.621Z,23.04
2017-02-01T00:07:37.197Z,23.17
2017-02-01T00:08:17.775Z,23.09
2017-02-01T00:08:58.356Z,23.16
2017-02-01T00:09:38.956Z,23.09
2017-02-01T00:10:19.562Z,23.13
2017-02-01T00:11:00.150Z,23.1
2017-02-01T00:11:40.749Z,23.1
2017-02-01T00:12:21.346Z,23.09
2017-02-01T00:13:01.977Z,23.09
2017-02-01T00:13:42.621Z,23.1
2017-02-01T00:14:23.244Z,23.15
2017-02-01T00:15:03.834Z,23.09
2017-02-01T00:15:44.416Z,23.16
2017-02-01T00:16:25.027Z,23.05
2017-02-01T00:17:05.660Z,23.09
2017-02-01T00:17:46.302Z,23.1
2017-02-01T00:18:26.839Z,23.15
2017-02-01T00:19:07.485Z,23.13
2017-02-01T00:19:48.051Z,23.1
2017-02-01T00:20:28.633Z,23.13
2017-02-01T00:21:09.233Z,23.16
2017-02-01T00:21:49.831Z,23.13
2017-02-01T00:22:30.413Z,23.13
2017-02-01T00:23:11.068Z,23.12
2017-02-01T00:23:51.728Z,23.16
2017-02-01T00:24:32.359Z,23.07
2017-02-01T00:25:12.995Z,23.09
2017-02-01T00:25:53.627Z,23.04
2017-02-01T00:26:34.333Z,23.13
2017-02-01T00:27:14.943Z,23.13
2017-02-01T00:27:55.603Z,23.12
2017-02-01T00:28:36.236Z,23.1
2017-02-01T00:29:16.886Z,23.09
2017-02-01T00:29:57.516Z,23.04
2017-02-01T00:30:38.088Z,23.07
2017-02-01T00:31:18.674Z,23.05
2017-02-01T00:31:59.282Z,23.05
2017-02-01T00:32:39.865Z,23.07
2017-02-01T00:33:20.459Z,23.01
2017-02-01T00:34:01.074Z,22.97
2017-02-01T00:34:41.662Z,23.04
2017-02-01T00:35:22.333Z,23.07
2017-02-01T00:36:02.941Z,23.07
2017-02-01T00:36:43.535Z,23.04
2017-02-01T00:37:24.111Z,22.94
2017-02-01T00:38:04.714Z,23.02
2017-02-01T00:38:46.165Z,23
2017-02-01T00:39:25.948Z,23.07
2017-02-01T00:40:06.515Z,23.1
2017-02-01T00:40:47.103Z,23.01
2017-02-01T00:41:27.708Z,23
2017-02-01T00:42:08.311Z,23
2017-02-01T00:42:48.888Z,22.95
2017-02-01T00:43:29.472Z,22.97
2017-02-01T00:44:10.062Z,23.09
2017-02-01T00:44:50.643Z,23
2017-02-01T00:45:31.224Z,23
2017-02-01T00:46:11.816Z,23.01
2017-02-01T00:46:52.414Z,23.05
2017-02-01T00:47:33.025Z,22.95
2017-02-01T00:48:13.629Z,23.04
2017-02-01T00:48:54.277Z,22.97
2017-02-01T00:49:34.929Z,23.01
2017-02-01T00:50:15.526Z,22.98
2017-02-01T00:50:56.160Z,23
2017-02-01T00:51:36.745Z,22.94
2017-02-01T00:52:17.409Z,23.04
2017-02-01T00:52:58.043Z,23.04
2017-02-01T00:53:38.687Z,22.95
2017-02-01T00:54:19.274Z,23.02
2017-02-01T00:54:59.899Z,22.97
2017-02-01T00:55:40.540Z,23.01
2017-02-01T00:56:21.156Z,23
2017-02-01T00:57:01.777Z,23.01
2017-02-01T00:57:42.400Z,23.02
2017-02-01T00:58:22.971Z,23.04
2017-02-01T00:59:03.602Z,23.04
2017-02-01T00:59:44.191Z,22.97
2017-02-01T01:00:24.816Z,23.02
2017-02-01T01:01:05.435Z,22.98
2017-02-01T01:01:46.104Z,22.97
2017-02-01T01:02:26.715Z,22.94
2017-02-01T01:03:07.300Z,22.97
2017-02-01T01:03:47.895Z,23.05
2017-02-01T01:04:28.510Z,22.9
2017-02-01T01:05:09.104Z,22.98
2017-02-01T01:05:49.719Z,22.98
2017-02-01T01:06:30.304Z,22.98
2017-02-01T01:07:10.962Z,22.98
2017-02-01T01:07:51.537Z,22.98
2017-02-01T01:08:32.122Z,22.97
2017-02-01T01:09:12.793Z,22.94
2017-02-01T01:09:53.373Z,22.91
2017-02-01T01:10:34.001Z,22.94
2017-02-01T01:11:14.577Z,22.92
2017-02-01T01:11:55.182Z,22.91
2017-02-01T01:12:35.833Z,22.97
2017-02-01T01:13:16.411Z,22.94
2017-02-01T01:13:56.989Z,22.94
2017-02-01T01:14:37.602Z,22.91
2017-02-01T01:15:18.203Z,22.97
2017-02-01T01:15:58.805Z,22.9
2017-02-01T01:16:39.467Z,22.94
2017-02-01T01:17:20.032Z,22.91
2017-02-01T01:18:00.632Z,22.94
2017-02-01T01:18:41.210Z,22.97
2017-02-01T01:19:21.798Z,22.97
2017-02-01T01:20:02.407Z,22.92
2017-02-01T01:20:42.987Z,22.95
2017-02-01T01:21:23.593Z,22.9
2017-02-01T01:22:04.166Z,22.92
2017-02-01T01:22:44.746Z,22.86
2017-02-01T01:23:25.327Z,22.83
2017-02-01T01:24:05.980Z,22.88
2017-02-01T01:24:46.569Z,22.95
2017-02-01T01:25:27.211Z,22.83
2017-02-01T01:26:07.795Z,22.8
2017-02-01T01:26:48.417Z,22.92
2017-02-01T01:27:28.996Z,22.83
2017-02-01T01:28:09.629Z,22.8
2017-02-01T01:28:50.200Z,22.88
2017-02-01T01:29:30.808Z,22.92
2017-02-01T01:30:11.407Z,22.88
2017-02-01T01:30:53.027Z,22.83
2017-02-01T01:31:33.643Z,22.85
2017-02-01T01:32:14.289Z,22.9
2017-02-01T01:32:54.925Z,22.86
2017-02-01T01:33:35.499Z,22.91
2017-02-01T01:34:16.134Z,22.88
2017-02-01T01:34:56.731Z,22.85
2017-02-01T01:35:37.337Z,22.85
2017-02-01T01:36:17.901Z,22.85
2017-02-01T01:36:58.506Z,22.86
2017-02-01T01:37:39.056Z,22.88
2017-02-01T01:38:19.670Z,22.82
2017-02-01T01:39:00.274Z,22.83
2017-02-01T01:39:40.851Z,22.86
2017-02-01T01:40:21.452Z,22.85
2017-02-01T01:41:02.051Z,22.82
2017-02-01T01:41:42.616Z,22.88
2017-02-01T01:42:23.222Z,22.94
2017-02-01T01:43:03.813Z,22.94
2017-02-01T01:43:44.394Z,22.83
2017-02-01T01:44:24.971Z,22.83
2017-02-01T01:45:05.575Z,22.9
2017-02-01T01:45:46.153Z,22.83
2017-02-01T01:46:26.776Z,22.9
2017-02-01T01:47:07.373Z,22.88
2017-02-01T01:47:47.938Z,22.9
2017-02-01T01:48:28.522Z,22.9
2017-02-01T01:49:09.098Z,22.86
2017-02-01T01:49:49.684Z,22.92
2017-02-01T01:50:30.265Z,22.86
2017-02-01T01:51:10.837Z,22.88
2017-02-01T01:51:51.469Z,22.83
2017-02-01T01:52:32.070Z,22.82
2017-02-01T01:53:12.705Z,22.88
2017-02-01T01:53:53.339Z,22.88
2017-02-01T01:54:33.919Z,22.86
2017-02-01T01:55:14.547Z,22.86
2017-02-01T01:55:55.142Z,22.83
2017-02-01T01:56:35.742Z,22.85
2017-02-01T01:57:16.363Z,22.85
2017-02-01T01:57:56.941Z,22.85
2017-02-01T01:58:37.600Z,22.91
2017-02-01T01:59:18.180Z,22.83
2017-02-01T01:59:58.807Z,22.85
2017-02-01T02:00:39.434Z,22.9
2017-02-01T02:01:20.009Z,22.83
2017-02-01T02:02:00.597Z,22.9
2017-02-01T02:02:41.197Z,22.82
2017-02-01T02:03:21.825Z,22.88
2017-02-01T02:04:02.410Z,22.82
2017-02-01T02:04:43.058Z,22.9
2017-02-01T02:05:23.676Z,22.83
2017-02-01T02:06:04.265Z,22.83
2017-02-01T02:06:44.853Z,22.82
2017-02-01T02:07:25.440Z,22.86
2017-02-01T02:08:06.016Z,22.88
2017-02-01T02:08:46.664Z,22.82
2017-02-01T02:09:27.295Z,22.85
2017-02-01T02:10:07.880Z,22.83
2017-02-01T02:10:48.488Z,22.83
2017-02-01T02:11:29.046Z,22.83
2017-02-01T02:12:09.634Z,22.86
2017-02-01T02:12:50.223Z,22.83
2017-02-01T02:13:30.856Z,22.82
2017-02-01T02:14:11.437Z,22.8
2017-02-01T02:14:52.035Z,22.85
2017-02-01T02:15:32.644Z,22.79
2017-02-01T02:16:13.215Z,22.83
2017-02-01T02:16:53.807Z,22.8
2017-02-01T02:17:34.395Z,22.79
2017-02-01T02:18:14.983Z,22.82
2017-02-01T02:18:55.605Z,22.8
2017-02-01T02:19:36.210Z,22.85
2017-02-01T02:20:16.822Z,22.77
2017-02-01T02:20:57.462Z,22.82
2017-02-01T02:21:38.117Z,22.77
2017-02-01T02:22:18.705Z,22.79
2017-02-01T02:22:59.325Z,22.79
2017-02-01T02:23:39.974Z,22.75
2017-02-01T02:24:20.563Z,22.86
2017-02-01T02:25:01.195Z,22.83
2017-02-01T02:25:41.856Z,22.82
2017-02-01T02:26:22.434Z,22.82
2017-02-01T02:27:03.049Z,22.82
2017-02-01T02:27:43.649Z,22.8
2017-02-01T02:28:24.273Z,22.73
2017-02-01T02:29:04.888Z,22.77
2017-02-01T02:29:45.516Z,22.82
2017-02-01T02:30:26.254Z,22.72
2017-02-01T02:31:06.916Z,22.79
2017-02-01T02:31:47.504Z,22.72
2017-02-01T02:32:28.100Z,22.82
2017-02-01T02:33:08.708Z,22.83
2017-02-01T02:33:49.310Z,22.83
2017-02-01T02:34:29.890Z,22.8
2017-02-01T02:35:10.471Z,22.79
2017-02-01T02:35:51.053Z,22.79
2017-02-01T02:36:31.631Z,22.77
2017-02-01T02:37:12.277Z,22.77
2017-02-01T02:37:52.873Z,22.76
2017-02-01T02:38:33.473Z,22.8
2017-02-01T02:39:14.056Z,22.82
2017-02-01T02:39:54.644Z,22.77
2017-02-01T02:40:35.264Z,22.85
2017-02-01T02:41:15.845Z,22.76
2017-02-01T02:41:56.437Z,22.8
2017-02-01T02:42:37.030Z,22.76
2017-02-01T02:43:17.612Z,22.76
2017-02-01T02:43:58.229Z,22.72
2017-02-01T02:44:38.832Z,22.75
2017-02-01T02:45:19.447Z,22.73
2017-02-01T02:46:00.066Z,22.79
2017-02-01T02:46:40.708Z,22.8
2017-02-01T02:47:21.294Z,22.79
2017-02-01T02:48:01.900Z,22.7
2017-02-01T02:48:42.517Z,22.75
2017-02-01T02:49:23.164Z,22.77
2017-02-01T02:50:03.759Z,22.77
2017-02-01T02:50:44.362Z,22.75
2017-02-01T02:51:24.962Z,22.79
2017-02-01T02:52:05.581Z,22.85
2017-02-01T02:52:46.206Z,22.68
2017-02-01T02:53:26.822Z,22.7
2017-02-01T02:54:07.412Z,22.82
2017-02-01T02:54:48.027Z,22.75
2017-02-01T02:55:28.663Z,22.76
2017-02-01T02:56:09.280Z,22.76
2017-02-01T02:56:49.859Z,22.77
2017-02-01T02:57:30.440Z,22.79
2017-02-01T02:58:11.044Z,22.75
2017-02-01T02:58:51.607Z,22.65
2017-02-01T02:59:32.227Z,22.73
2017-02-01T03:00:12.890Z,22.83
2017-02-01T03:00:53.459Z,22.73
2017-02-01T03:01:34.070Z,22.8
2017-02-01T03:02:14.648Z,22.83
2017-02-01T03:02:55.267Z,22.77
2017-02-01T03:03:35.898Z,22.73
2017-02-01T03:04:16.479Z,22.75
2017-02-01T03:04:57.091Z,22.82
2017-02-01T03:05:37.685Z,22.85
2017-02-01T03:06:18.287Z,22.73
2017-02-01T03:06:58.914Z,22.68
2017-02-01T03:07:39.515Z,22.75
2017-02-01T03:08:20.120Z,22.77
2017-02-01T03:09:00.724Z,22.76
2017-02-01T03:09:41.387Z,22.8
2017-02-01T03:10:21.988Z,22.75
2017-02-01T03:11:02.627Z,22.72
2017-02-01T03:11:43.239Z,22.67
2017-02-01T03:12:23.852Z,22.68
2017-02-01T03:13:04.521Z,22.79
2017-02-01T03:13:45.115Z,22.7
2017-02-01T03:14:25.771Z,22.67
2017-02-01T03:15:06.357Z,22.7
2017-02-01T03:15:47.004Z,22.83
2017-02-01T03:16:27.618Z,22.68
2017-02-01T03:17:08.224Z,22.7
2017-02-01T03:17:48.820Z,22.67
2017-02-01T03:18:29.402Z,22.67
2017-02-01T03:19:09.994Z,22.75
2017-02-01T03:19:50.606Z,22.73
2017-02-01T03:20:31.186Z,22.77
2017-02-01T03:21:11.777Z,22.7
2017-02-01T03:21:52.371Z,22.76
2017-02-01T03:22:32.993Z,22.75
2017-02-01T03:23:13.576Z,22.62
2017-02-01T03:23:54.196Z,22.76
2017-02-01T03:24:34.857Z,22.68
2017-02-01T03:25:15.416Z,22.76
2017-02-01T03:25:56.026Z,22.68
2017-02-01T03:26:36.689Z,22.68
2017-02-01T03:27:17.264Z,22.64
2017-02-01T03:27:57.839Z,22.62
2017-02-01T03:28:38.428Z,22.7
2017-02-01T03:29:19.009Z,22.67
2017-02-01T03:29:59.589Z,22.72
2017-02-01T03:30:40.209Z,22.7
2017-02-01T03:31:20.800Z,22.7
2017-02-01T03:32:01.398Z,22.65
2017-02-01T03:32:41.998Z,22.73
2017-02-01T03:33:22.631Z,22.67
2017-02-01T03:34:03.265Z,22.68
2017-02-01T03:34:43.899Z,22.68
2017-02-01T03:35:24.500Z,22.67
2017-02-01T03:36:05.117Z,22.72
2017-02-01T03:36:45.696Z,22.72
2017-02-01T03:37:26.323Z,22.65
2017-02-01T03:38:07.020Z,22.7
2017-02-01T03:38:47.665Z,22.64
2017-02-01T03:39:28.280Z,22.7
2017-02-01T03:40:08.876Z,22.68
2017-02-01T03:40:49.507Z,22.6
2017-02-01T03:41:30.097Z,22.62
2017-02-01T03:42:10.715Z,22.68
2017-02-01T03:42:51.343Z,22.68
2017-02-01T03:43:31.918Z,22.64
2017-02-01T03:44:12.589Z,22.65
2017-02-01T03:44:53.268Z,22.64
2017-02-01T03:45:33.872Z,22.68
2017-02-01T03:46:14.457Z,22.65
2017-02-01T03:46:55.037Z,22.67
2017-02-01T03:47:35.668Z,22.68
2017-02-01T03:48:16.288Z,22.68
2017-02-01T03:48:56.931Z,22.65
2017-02-01T03:49:37.515Z,22.72
2017-02-01T03:50:18.115Z,22.68
2017-02-01T03:50:58.726Z,22.67
2017-02-01T03:51:39.307Z,22.62
2017-02-01T03:52:19.910Z,22.68
2017-02-01T03:53:00.527Z,22.61
2017-02-01T03:53:41.179Z,22.68
2017-02-01T03:54:21.774Z,22.58
2017-02-01T03:55:02.367Z,22.7
2017-02-01T03:55:42.957Z,22.72
2017-02-01T03:56:23.607Z,22.7
2017-02-01T03:57:04.197Z,22.7
2017-02-01T03:57:44.774Z,22.6
2017-02-01T03:58:25.394Z,22.72
2017-02-01T03:59:06.009Z,22.58
2017-02-01T03:59:46.585Z,22.76
2017-02-01T04:00:27.218Z,22.65
2017-02-01T04:01:07.870Z,22.61
2017-02-01T04:01:48.436Z,22.64
2017-02-01T04:02:29.104Z,22.62
2017-02-01T04:03:09.718Z,22.65
2017-02-01T04:03:50.431Z,22.67
2017-02-01T04:04:31.071Z,22.72
2017-02-01T04:05:11.695Z,22.64
2017-02-01T04:05:52.354Z,22.7
2017-02-01T04:06:32.985Z,22.62
2017-02-01T04:07:13.593Z,22.65
2017-02-01T04:07:54.189Z,22.6
2017-02-01T04:08:34.791Z,22.67
2017-02-01T04:09:15.391Z,22.64
2017-02-01T04:09:56.000Z,22.67
2017-02-01T04:10:36.592Z,22.64
2017-02-01T04:11:17.198Z,22.6
2017-02-01T04:11:57.807Z,22.57
2017-02-01T04:12:38.381Z,22.65
2017-02-01T04:13:19.008Z,22.72
2017-02-01T04:13:59.622Z,22.67
2017-02-01T04:14:40.221Z,22.61
2017-02-01T04:15:20.876Z,22.57
2017-02-01T04:16:01.511Z,22.65
2017-02-01T04:16:42.090Z,22.64
2017-02-01T04:17:22.726Z,22.68
2017-02-01T04:18:03.379Z,22.52
2017-02-01T04:18:43.991Z,22.68
2017-02-01T04:19:24.588Z,22.72
2017-02-01T04:20:05.225Z,22.55
2017-02-01T04:20:45.883Z,22.58
2017-02-01T04:21:26.469Z,22.55
2017-02-01T04:22:07.092Z,22.64
2017-02-01T04:22:47.724Z,22.57
2017-02-01T04:23:28.286Z,22.52
2017-02-01T04:24:08.914Z,22.51
2017-02-01T04:24:49.532Z,22.55
2017-02-01T04:25:30.155Z,22.55
2017-02-01T04:26:10.810Z,22.61
2017-02-01T04:26:51.395Z,22.55
2017-02-01T04:27:32.005Z,22.61
2017-02-01T04:28:12.598Z,22.57
2017-02-01T04:28:53.177Z,22.64
2017-02-01T04:29:33.799Z,22.64
2017-02-01T04:30:14.416Z,22.61
2017-02-01T04:30:55.088Z,22.64
2017-02-01T04:31:35.745Z,22.61
2017-02-01T04:32:16.358Z,22.67
2017-02-01T04:32:56.965Z,22.62
2017-02-01T04:33:37.600Z,22.6
2017-02-01T04:34:18.231Z,22.57
2017-02-01T04:34:58.872Z,22.58
2017-02-01T04:35:39.472Z,22.58
2017-02-01T04:36:20.065Z,22.61
2017-02-01T04:37:00.665Z,22.65
2017-02-01T04:37:41.277Z,22.67
2017-02-01T04:38:21.871Z,22.58
2017-02-01T04:39:02.505Z,22.61
2017-02-01T04:39:43.133Z,22.62
2017-02-01T04:40:23.725Z,22.58
2017-02-01T04:41:04.313Z,22.57
2017-02-01T04:41:44.920Z,22.58
2017-02-01T04:42:25.545Z,22.57
2017-02-01T04:43:06.161Z,22.61
2017-02-01T04:43:46.769Z,22.52
2017-02-01T04:44:27.381Z,22.55
2017-02-01T04:45:07.998Z,22.58
2017-02-01T04:45:48.629Z,22.57
2017-02-01T04:46:29.212Z,22.6
2017-02-01T04:47:09.836Z,22.55
2017-02-01T04:47:50.455Z,22.62
2017-02-01T04:48:31.077Z,22.52
2017-02-01T04:49:11.668Z,22.58
2017-02-01T04:49:52.251Z,22.61
2017-02-01T04:50:32.828Z,22.52
2017-02-01T04:51:13.406Z,22.57
2017-02-01T04:51:53.990Z,22.54
2017-02-01T04:52:34.653Z,22.54
2017-02-01T04:53:15.231Z,22.54
2017-02-01T04:53:55.849Z,22.62
2017-02-01T04:54:36.436Z,22.65
2017-02-01T04:55:17.020Z,22.58
2017-02-01T04:55:57.597Z,22.55
2017-02-01T04:56:38.215Z,22.54
2017-02-01T04:57:18.806Z,22.6
2017-02-01T04:57:59.391Z,22.6
2017-02-01T04:58:39.974Z,22.64
2017-02-01T04:59:20.587Z,22.62
2017-02-01T05:00:01.183Z,22.62
2017-02-01T05:00:41.771Z,22.6
2017-02-01T05:01:22.367Z,22.54
2017-02-01T05:02:02.974Z,22.62
2017-02-01T05:02:43.592Z,22.55
2017-02-01T05:03:24.182Z,22.58
2017-02-01T05:04:04.756Z,22.54
2017-02-01T05:04:45.393Z,22.6
2017-02-01T05:05:26.006Z,22.62
2017-02-01T05:06:06.594Z,22.61
2017-02-01T05:06:47.238Z,22.6
2017-02-01T05:07:27.828Z,22.62
2017-02-01T05:08:08.448Z,22.57
2017-02-01T05:08:49.050Z,22.55
2017-02-01T05:09:29.680Z,22.58
2017-02-01T05:10:10.359Z,22.61
2017-02-01T05:10:50.955Z,22.64
2017-02-01T05:11:31.573Z,22.62
2017-02-01T05:12:12.216Z,22.61
2017-02-01T05:12:52.857Z,22.54
2017-02-01T05:13:33.470Z,22.61
2017-02-01T05:14:14.058Z,22.61
2017-02-01T05:14:54.682Z,22.61
2017-02-01T05:15:35.280Z,22.62
2017-02-01T05:16:15.878Z,22.55
2017-02-01T05:16:56.464Z,22.55
2017-02-01T05:17:37.059Z,22.64
2017-02-01T05:18:17.685Z,22.58
2017-02-01T05:18:58.287Z,22.55
2017-02-01T05:19:38.916Z,22.57
2017-02-01T05:20:19.513Z,22.61
2017-02-01T05:21:00.132Z,22.54
2017-02-01T05:21:40.729Z,22.64
2017-02-01T05:22:21.357Z,22.6
2017-02-01T05:23:01.957Z,22.55
2017-02-01T05:23:42.600Z,22.54
2017-02-01T05:24:23.190Z,22.55
2017-02-01T05:25:03.854Z,22.61
2017-02-01T05:25:44.456Z,22.58
2017-02-01T05:26:25.091Z,22.55
2017-02-01T05:27:05.732Z,22.52
2017-02-01T05:27:46.362Z,22.62
2017-02-01T05:28:26.950Z,22.58
2017-02-01T05:29:07.571Z,22.62
2017-02-01T05:29:48.172Z,22.57
2017-02-01T05:30:28.833Z,22.61
2017-02-01T05:31:09.442Z,22.62
2017-02-01T05:31:50.022Z,22.61
2017-02-01T05:32:30.630Z,22.6
2017-02-01T05:33:11.222Z,22.51
2017-02-01T05:33:51.812Z,22.51
2017-02-01T05:34:32.391Z,22.55
2017-02-01T05:35:12.975Z,22.62
2017-02-01T05:35:53.594Z,22.57
2017-02-01T05:36:34.174Z,22.54
2017-02-01T05:37:14.844Z,22.54
2017-02-01T05:37:55.453Z,22.58
2017-02-01T05:38:36.033Z,22.61
2017-02-01T05:39:16.654Z,22.61
2017-02-01T05:39:57.249Z,22.58
2017-02-01T05:40:37.829Z,22.57
2017-02-01T05:41:18.407Z,22.57
2017-02-01T05:41:59.011Z,22.52
2017-02-01T05:42:39.626Z,22.57
2017-02-01T05:43:20.212Z,22.52
2017-02-01T05:44:00.816Z,22.6
2017-02-01T05:44:41.401Z,22.58
2017-02-01T05:45:22.049Z,22.54
2017-02-01T05:46:02.695Z,22.6
2017-02-01T05:46:43.302Z,22.61
2017-02-01T05:47:23.909Z,22.57
2017-02-01T05:48:04.577Z,22.57
2017-02-01T05:48:45.202Z,22.64
2017-02-01T05:49:25.879Z,22.61
2017-02-01T05:50:06.471Z,22.51
2017-02-01T05:50:47.084Z,22.55
2017-02-01T05:51:27.722Z,22.6
2017-02-01T05:52:08.291Z,22.62
2017-02-01T05:52:48.931Z,22.6
2017-02-01T05:53:29.552Z,22.61
2017-02-01T05:54:10.146Z,22.6
2017-02-01T05:54:50.764Z,22.57
2017-02-01T05:55:31.373Z,22.58
2017-02-01T05:56:11.955Z,22.52
2017-02-01T05:56:52.556Z,22.51
2017-02-01T05:57:33.178Z,22.55
2017-02-01T05:58:13.824Z,22.51
2017-02-01T05:58:54.384Z,22.57
2017-02-01T05:59:34.982Z,22.58
2017-02-01T06:00:15.610Z,22.52
2017-02-01T06:00:56.213Z,22.62
2017-02-01T06:01:36.835Z,22.61
2017-02-01T06:02:17.459Z,22.57
2017-02-01T06:02:58.063Z,22.64
2017-02-01T06:03:38.672Z,22.57
2017-02-01T06:04:19.252Z,22.61
2017-02-01T06:04:59.846Z,22.61
2017-02-01T06:05:40.441Z,22.57
2017-02-01T06:06:21.021Z,22.52
2017-02-01T06:07:01.613Z,22.51
2017-02-01T06:07:42.276Z,22.57
2017-02-01T06:08:22.897Z,22.55
2017-02-01T06:09:03.519Z,22.51
2017-02-01T06:09:44.097Z,22.57
2017-02-01T06:10:24.686Z,22.62
2017-02-01T06:11:05.341Z,22.64
2017-02-01T06:11:46.012Z,22.54
2017-02-01T06:12:26.595Z,22.61
2017-02-01T06:13:07.212Z,22.6
2017-02-01T06:13:47.840Z,22.64
2017-02-01T06:14:28.426Z,22.57
2017-02-01T06:15:09.026Z,22.54
2017-02-01T06:15:49.624Z,22.51
2017-02-01T06:16:30.229Z,22.6
2017-02-01T06:17:10.807Z,22.55
2017-02-01T06:17:51.439Z,22.47
2017-02-01T06:18:32.016Z,22.6
2017-02-01T06:19:12.695Z,22.61
2017-02-01T06:19:53.318Z,22.61
2017-02-01T06:20:33.888Z,22.62
2017-02-01T06:21:14.532Z,22.61
2017-02-01T06:21:55.092Z,22.61
2017-02-01T06:22:35.714Z,22.64
2017-02-01T06:23:16.325Z,22.57
2017-02-01T06:23:56.958Z,22.58
2017-02-01T06:24:37.551Z,22.54
2017-02-01T06:25:18.139Z,22.61
2017-02-01T06:25:58.775Z,22.55
2017-02-01T06:26:39.369Z,22.61
2017-02-01T06:27:19.984Z,22.64
2017-02-01T06:28:00.561Z,22.6
2017-02-01T06:28:41.170Z,22.54
2017-02-01T06:29:21.759Z,22.67
2017-02-01T06:30:02.347Z,22.61
2017-02-01T06:30:42.931Z,22.57
2017-02-01T06:31:23.514Z,22.64
2017-02-01T06:32:04.122Z,22.6
2017-02-01T06:32:44.698Z,22.65
2017-02-01T06:33:25.442Z,22.58
2017-02-01T06:34:05.960Z,22.55
2017-02-01T06:34:46.602Z,22.61
2017-02-01T06:35:27.204Z,22.62
2017-02-01T06:36:07.847Z,22.64
2017-02-01T06:36:48.449Z,22.6
2017-02-01T06:37:29.028Z,22.62
2017-02-01T06:38:09.648Z,22.62
2017-02-01T06:38:50.261Z,22.54
2017-02-01T06:39:30.893Z,22.57
2017-02-01T06:40:11.495Z,22.6
2017-02-01T06:40:52.085Z,22.6
2017-02-01T06:41:32.672Z,22.62
2017-02-01T06:42:13.311Z,22.6
2017-02-01T06:42:53.923Z,22.62
2017-02-01T06:43:34.501Z,22.62
2017-02-01T06:44:15.107Z,22.62
2017-02-01T06:44:55.694Z,22.6
2017-02-01T06:45:36.382Z,22.58
2017-02-01T06:46:16.980Z,22.61
2017-02-01T06:46:57.599Z,22.61
2017-02-01T06:47:38.225Z,22.62
2017-02-01T06:48:18.837Z,22.54
2017-02-01T06:48:59.428Z,22.6
2017-02-01T06:49:40.027Z,22.68
2017-02-01T06:50:20.633Z,22.7
2017-02-01T06:51:01.213Z,22.76
2017-02-01T06:51:41.792Z,22.72
2017-02-01T06:52:22.405Z,22.79
2017-02-01T06:53:03.008Z,22.79
2017-02-01T06:53:43.842Z,22.72
2017-02-01T06:54:24.256Z,22.85
2017-02-01T06:55:04.864Z,22.86
2017-02-01T06:55:45.500Z,22.85
2017-02-01T06:56:26.087Z,22.91
2017-02-01T06:57:06.675Z,22.92
2017-02-01T06:57:47.270Z,22.94
2017-02-01T06:58:27.856Z,22.97
2017-02-01T06:59:08.465Z,22.94
2017-02-01T06:59:49.053Z,22.91
2017-02-01T07:00:29.649Z,23.01
2017-02-01T07:01:10.242Z,23.01
2017-02-01T07:01:50.887Z,23
2017-02-01T07:02:31.468Z,23.07
2017-02-01T07:03:12.085Z,23.1
2017-02-01T07:03:52.700Z,23.13
2017-02-01T07:04:33.328Z,23.05
2017-02-01T07:05:14.605Z,23.12
2017-02-01T07:05:55.081Z,23.1
2017-02-01T07:06:35.651Z,23.13
2017-02-01T07:07:16.243Z,23.1
2017-02-01T07:07:56.837Z,23.16
2017-02-01T07:08:37.443Z,23.15
2017-02-01T07:09:18.040Z,23.16
2017-02-01T07:09:58.613Z,23.16
2017-02-01T07:10:39.216Z,23.1
2017-02-01T07:11:19.814Z,23.1
2017-02-01T07:12:00.405Z,23.13
2017-02-01T07:12:40.997Z,23.09
2017-02-01T07:13:21.590Z,23.1
2017-02-01T07:14:02.209Z,23.16
2017-02-01T07:14:42.883Z,23.15
2017-02-01T07:15:23.494Z,23.15
2017-02-01T07:16:04.109Z,23.15
2017-02-01T07:16:44.861Z,23.19
2017-02-01T07:17:25.471Z,23.13
2017-02-01T07:18:06.080Z,23.16
2017-02-01T07:18:46.699Z,23.16
2017-02-01T07:19:27.292Z,23.17
2017-02-01T07:20:07.958Z,23.16
2017-02-01T07:20:48.649Z,23.13
2017-02-01T07:21:29.253Z,23.17
2017-02-01T07:22:09.886Z,23.22
2017-02-01T07:22:51.206Z,23.2
2017-02-01T07:23:32.131Z,23.22
2017-02-01T07:24:12.733Z,23.2
2017-02-01T07:24:53.351Z,23.15
2017-02-01T07:25:33.966Z,23.15
2017-02-01T07:26:14.622Z,23.17
2017-02-01T07:26:55.202Z,23.2
2017-02-01T07:27:35.830Z,23.2
2017-02-01T07:28:16.486Z,23.17
2017-02-01T07:28:57.145Z,23.13
2017-02-01T07:29:37.738Z,23.13
2017-02-01T07:30:18.331Z,23.19
2017-02-01T07:30:58.939Z,23.2
2017-02-01T07:31:39.676Z,23.15
2017-02-01T07:32:20.284Z,23.19
2017-02-01T07:33:00.933Z,23.17
2017-02-01T07:33:41.604Z,23.12
2017-02-01T07:34:22.248Z,23.2
2017-02-01T07:35:02.842Z,23.15
2017-02-01T07:35:43.504Z,23.13
2017-02-01T07:36:24.549Z,23.13
2017-02-01T07:37:05.189Z,23.23
2017-02-01T07:37:45.966Z,23.15
2017-02-01T07:38:26.616Z,23.17
2017-02-01T07:39:07.243Z,23.23
2017-02-01T07:39:47.929Z,23.31
2017-02-01T07:40:28.613Z,23.31
2017-02-01T07:41:09.195Z,23.23
2017-02-01T07:41:49.859Z,23.19
2017-02-01T07:42:30.441Z,23.22
2017-02-01T07:43:11.147Z,23.27
2017-02-01T07:43:51.817Z,23.25
2017-02-01T07:44:32.513Z,23.22
2017-02-01T07:45:13.156Z,23.27
2017-02-01T07:45:53.797Z,23.2
2017-02-01T07:46:34.374Z,23.27
2017-02-01T07:47:14.979Z,23.27
2017-02-01T07:47:55.633Z,23.22
2017-02-01T07:48:36.260Z,23.23
2017-02-01T07:49:17.420Z,23.31
2017-02-01T07:49:57.477Z,23.28
2017-02-01T07:50:38.118Z,23.22
2017-02-01T07:51:18.754Z,23.25
2017-02-01T07:51:59.437Z,23.28
2017-02-01T07:52:40.021Z,23.28
2017-02-01T07:53:20.640Z,23.32
2017-02-01T07:54:01.237Z,23.19
2017-02-01T07:54:41.847Z,23.32
2017-02-01T07:55:22.439Z,23.23
2017-02-01T07:56:03.086Z,23.2
2017-02-01T07:56:43.699Z,23.23
2017-02-01T07:57:24.347Z,23.2
2017-02-01T07:58:05.005Z,23.25
2017-02-01T07:58:45.691Z,23.23
2017-02-01T07:59:26.263Z,23.23
2017-02-01T08:00:06.872Z,23.31
2017-02-01T08:00:47.644Z,23.25
2017-02-01T08:01:28.316Z,23.31
2017-02-01T08:02:08.929Z,23.23
2017-02-01T08:02:49.523Z,23.23
2017-02-01T08:03:30.193Z,23.23
2017-02-01T08:04:10.771Z,23.25
2017-02-01T08:04:53.037Z,23.35
2017-02-01T08:05:36.187Z,23.33
2017-02-01T08:06:16.939Z,23.23
2017-02-01T08:06:57.530Z,23.19
2017-02-01T08:07:38.117Z,23.22
2017-02-01T08:08:18.788Z,23.31
2017-02-01T08:08:59.434Z,23.31
2017-02-01T08:09:40.034Z,23.28
2017-02-01T08:10:20.643Z,23.2
2017-02-01T08:11:01.251Z,23.22
2017-02-01T08:11:41.873Z,23.23
2017-02-01T08:12:22.556Z,23.22
2017-02-01T08:13:03.435Z,23.23
2017-02-01T08:13:44.035Z,23.19
2017-02-01T08:14:24.629Z,23.19
2017-02-01T08:15:06.144Z,23.23
2017-02-01T08:15:46.740Z,23.22
2017-02-01T08:16:27.364Z,23.22
2017-02-01T08:17:08.050Z,23.23
2017-02-01T08:17:49.131Z,23.16
2017-02-01T08:18:29.743Z,23.31
2017-02-01T08:19:10.316Z,23.31
2017-02-01T08:19:50.948Z,23.25
2017-02-01T08:20:31.515Z,23.22
2017-02-01T08:21:12.128Z,23.25
2017-02-01T08:21:52.832Z,23.22
2017-02-01T08:22:33.387Z,23.27
2017-02-01T08:23:13.979Z,23.22
2017-02-01T08:23:54.576Z,23.33
2017-02-01T08:24:35.454Z,23.28
2017-02-01T08:25:16.060Z,23.28
2017-02-01T08:25:56.662Z,23.25
2017-02-01T08:26:37.297Z,23.25
2017-02-01T08:27:17.911Z,23.28
2017-02-01T08:27:58.494Z,23.35
2017-02-01T08:28:39.106Z,23.35
2017-02-01T08:29:19.710Z,23.33
2017-02-01T08:30:00.896Z,23.38
2017-02-01T08:30:41.491Z,23.38
2017-02-01T08:31:22.136Z,23.33
2017-02-01T08:32:03.654Z,23.27
2017-02-01T08:32:44.239Z,23.28
2017-02-01T08:33:24.879Z,23.27
2017-02-01T08:34:05.460Z,23.25
2017-02-01T08:34:46.051Z,23.22
2017-02-01T08:35:26.745Z,23.16
2017-02-01T08:36:07.371Z,23.2
2017-02-01T08:36:48.028Z,23.23
2017-02-01T08:37:28.652Z,23.4
2017-02-01T08:38:09.261Z,23.28
2017-02-01T08:38:49.847Z,23.28
2017-02-01T08:39:30.467Z,23.32
2017-02-01T08:40:11.075Z,23.35
2017-02-01T08:40:51.697Z,23.31
2017-02-01T08:41:32.296Z,23.28
2017-02-01T08:42:12.883Z,23.28
2017-02-01T08:42:53.543Z,23.31
2017-02-01T08:43:34.950Z,23.33
2017-02-01T08:44:14.726Z,23.35
2017-02-01T08:44:55.369Z,23.32
2017-02-01T08:45:35.980Z,23.33